Doebay, Washington
Current Conditions -  °F | °C
As of 2:55 PM on Friday 28 Nov 2014 (Local Time) from KORS Reporting Station
Broken Clouds Broken Clouds  
Wind Chill: 39°   Ceiling: 5000
Heat Index: 45°   Visibility: 10mi
Dew Point: 32°   Wind: 12mph
Humidity: 61%   Direction: 350°N
Pressure: 29.46"   Gusts: 17mph
Location:  48.6597°N, 122.828°W
Report Text: KORS 282255Z AUTO 35010G15KT 10SM SCT045 BKN050 07/00 A2946 RMK AO2
Loading
Personal Weather Stations






























Interactive Weather Map New forecast layout! Learn more

10-Day Weather Forecast

Advertisements
Track Severe Weather on mobile